createdAt,value
2022-10-12T00:01:17.382Z,25.98
2022-10-12T00:03:45.781Z,25.75
2022-10-12T00:06:17.017Z,23.25
2022-10-12T00:08:46.322Z,25.13
2022-10-12T00:11:18.541Z,27.90
2022-10-12T00:16:18.757Z,29.20
2022-10-12T00:18:52.385Z,28.70
2022-10-12T00:21:21.431Z,25.48
2022-10-12T00:23:51.073Z,25.80
2022-10-12T00:26:22.342Z,23.50
2022-10-12T00:28:57.024Z,27.33
2022-10-12T00:31:26.721Z,28.90
2022-10-12T00:33:55.381Z,24.75
2022-10-12T00:36:26.879Z,29.50
2022-10-12T00:38:57.128Z,25.20
2022-10-12T00:43:58.851Z,31.10
2022-10-12T00:46:34.029Z,32.40
2022-10-12T00:49:11.223Z,28.30
2022-10-12T00:51:42.193Z,31.20
2022-10-12T00:56:45.459Z,27.15
2022-10-12T00:59:20.903Z,31.75
2022-10-12T01:01:49.567Z,35.45
2022-10-12T01:04:18.235Z,27.60
2022-10-12T01:06:46.809Z,32.47
2022-10-12T01:09:15.977Z,31.20
2022-10-12T01:11:44.271Z,32.72
2022-10-12T01:14:14.453Z,28.27
2022-10-12T01:16:52.500Z,26.85
2022-10-12T01:19:57.024Z,27.77
2022-10-12T01:22:26.596Z,28.88
2022-10-12T01:25:09.531Z,25.90
2022-10-12T01:27:47.200Z,25.80
2022-10-12T01:30:23.408Z,26.27
2022-10-12T01:33:04.558Z,26.10
2022-10-12T01:35:43.589Z,25.23
2022-10-12T01:38:27.104Z,24.45
2022-10-12T01:41:00.979Z,24.17
2022-10-12T01:43:36.032Z,24.65
2022-10-12T01:46:29.491Z,25.90
2022-10-12T01:49:00.139Z,29.73
2022-10-12T01:51:36.533Z,27.00
2022-10-12T01:54:13.049Z,25.70
2022-10-12T01:56:48.466Z,28.63
2022-10-12T01:59:22.872Z,25.77
2022-10-12T02:01:59.452Z,24.95
2022-10-12T02:04:36.300Z,22.52
2022-10-12T02:07:10.765Z,32.75
2022-10-12T02:09:40.576Z,25.77
2022-10-12T02:12:13.645Z,25.52
2022-10-12T02:14:46.118Z,28.48
2022-10-12T02:17:20.200Z,28.38
2022-10-12T02:19:52.759Z,31.33
2022-10-12T02:22:22.002Z,27.98
2022-10-12T02:24:54.309Z,28.10
2022-10-12T02:27:25.425Z,28.05
2022-10-12T02:29:54.826Z,29.17
2022-10-12T02:32:31.152Z,29.70
2022-10-12T02:35:06.400Z,30.63
2022-10-12T02:37:40.103Z,31.67
2022-10-12T02:40:14.260Z,31.45
2022-10-12T02:43:09.263Z,33.90
2022-10-12T02:45:39.650Z,34.83
2022-10-12T02:48:12.733Z,38.10
2022-10-12T02:50:41.683Z,35.28
2022-10-12T02:53:10.456Z,37.30
2022-10-12T02:55:39.984Z,36.70
2022-10-12T02:58:08.547Z,39.00
2022-10-12T03:00:37.319Z,33.17
2022-10-12T03:03:05.585Z,37.72
2022-10-12T03:05:35.784Z,33.50
2022-10-12T03:08:04.147Z,36.20
2022-10-12T03:10:32.609Z,39.08
2022-10-12T03:13:01.003Z,41.78
2022-10-12T03:15:30.114Z,38.55
2022-10-12T03:22:20.124Z,40.17
2022-10-12T03:24:48.582Z,40.75
2022-10-12T03:27:17.377Z,42.17
2022-10-12T03:29:45.680Z,42.53
2022-10-12T03:32:16.224Z,43.47
2022-10-12T03:34:44.545Z,45.47
2022-10-12T03:37:13.117Z,43.95
2022-10-12T03:39:42.833Z,43.38
2022-10-12T03:42:11.666Z,42.53
2022-10-12T03:44:39.852Z,48.67
2022-10-12T03:47:08.434Z,44.30
2022-10-12T03:49:36.938Z,66.95
2022-10-12T03:52:05.684Z,60.55
2022-10-12T03:54:34.505Z,69.38
2022-10-12T03:57:04.152Z,52.55
2022-10-12T03:59:32.938Z,53.20
2022-10-12T04:02:02.055Z,49.47
2022-10-12T04:04:31.993Z,52.13
2022-10-12T04:07:03.945Z,51.47
2022-10-12T04:09:33.101Z,50.00
2022-10-12T04:12:01.581Z,49.72
2022-10-12T04:14:31.708Z,54.58
2022-10-12T04:17:00.109Z,53.20
2022-10-12T04:19:28.680Z,51.20
2022-10-12T04:21:57.447Z,54.58
2022-10-12T04:24:25.837Z,53.30
2022-10-12T04:26:54.229Z,50.33
2022-10-12T04:29:22.841Z,54.60
2022-10-12T04:31:52.825Z,54.30
2022-10-12T04:34:21.785Z,51.25
2022-10-12T04:36:50.820Z,49.30
2022-10-12T04:39:19.261Z,56.63
2022-10-12T04:41:47.530Z,56.47
2022-10-12T04:44:16.036Z,62.35
2022-10-12T04:46:44.261Z,58.83
2022-10-12T04:49:14.489Z,55.47
2022-10-12T04:51:42.864Z,60.03
2022-10-12T04:54:11.710Z,62.25
2022-10-12T04:56:42.128Z,67.70
2022-10-12T04:59:14.004Z,54.40
2022-10-12T05:01:42.356Z,53.35
2022-10-12T05:04:11.108Z,57.80
2022-10-12T05:06:40.753Z,52.17
2022-10-12T05:09:13.187Z,57.28
2022-10-12T05:11:44.653Z,59.85
2022-10-12T05:14:13.564Z,60.35
2022-10-12T05:16:41.891Z,58.20
2022-10-12T05:19:10.730Z,54.90
2022-10-12T05:21:40.749Z,59.15
2022-10-12T05:24:09.491Z,51.50
2022-10-12T05:26:37.945Z,54.85
2022-10-12T05:29:06.349Z,61.65
2022-10-12T05:31:35.016Z,71.85
2022-10-12T05:34:03.336Z,61.35
2022-10-12T05:36:32.228Z,60.15
2022-10-12T05:39:01.869Z,52.40
2022-10-12T05:41:30.669Z,56.50
2022-10-12T05:43:58.947Z,57.92
2022-10-12T05:46:27.598Z,58.28
2022-10-12T05:48:55.876Z,72.80
2022-10-12T05:51:28.780Z,71.60
2022-10-12T05:53:57.567Z,68.30
2022-10-12T05:56:27.754Z,70.13
2022-10-12T05:58:56.030Z,59.65
2022-10-12T06:01:24.981Z,64.00
2022-10-12T06:03:54.782Z,67.93
2022-10-12T06:06:24.046Z,61.75
2022-10-12T06:08:52.356Z,68.43
2022-10-12T06:11:21.602Z,69.53
2022-10-12T06:13:51.318Z,72.88
2022-10-12T06:16:19.773Z,58.92
2022-10-12T06:18:48.037Z,63.85
2022-10-12T06:24:05.217Z,64.30
2022-10-12T06:26:33.508Z,60.72
2022-10-12T06:29:03.406Z,62.97
2022-10-12T06:31:32.484Z,55.08
2022-10-12T06:34:01.415Z,53.50
2022-10-12T06:36:29.676Z,51.80
2022-10-12T06:38:58.369Z,47.05
2022-10-12T06:41:26.649Z,59.47
2022-10-12T06:43:55.389Z,60.85
2022-10-12T06:46:25.032Z,65.68
2022-10-12T06:48:55.078Z,64.75
2022-10-12T06:51:23.531Z,59.28
2022-10-12T06:53:52.034Z,59.63
2022-10-12T06:56:20.291Z,59.35
2022-10-12T06:58:48.864Z,52.33
2022-10-12T07:01:17.457Z,52.42
2022-10-12T07:03:47.161Z,52.67
2022-10-12T07:06:15.981Z,56.20
2022-10-12T07:08:44.827Z,55.92
2022-10-12T07:11:15.151Z,53.90
2022-10-12T07:13:43.683Z,56.30
2022-10-12T07:16:12.218Z,57.50
2022-10-12T07:18:41.337Z,63.38
2022-10-12T07:21:11.081Z,63.53
2022-10-12T07:23:45.715Z,59.25
2022-10-12T07:26:15.160Z,60.03
2022-10-12T07:28:43.994Z,54.90
2022-10-12T07:31:12.560Z,61.35
2022-10-12T07:33:41.162Z,48.63
2022-10-12T07:36:19.163Z,51.92
2022-10-12T07:38:49.689Z,60.15
2022-10-12T07:41:18.454Z,60.58
2022-10-12T07:43:47.145Z,53.47
2022-10-12T07:46:15.565Z,48.53
2022-10-12T07:48:49.816Z,44.05
2022-10-12T07:51:20.249Z,42.90
2022-10-12T07:53:48.487Z,50.35
2022-10-12T07:56:17.853Z,50.03
2022-10-12T07:58:50.831Z,47.45
2022-10-12T08:01:21.790Z,45.67
2022-10-12T08:03:51.144Z,42.50
2022-10-12T08:06:23.875Z,45.63
2022-10-12T08:08:52.309Z,45.78
2022-10-12T08:11:22.005Z,47.05
2022-10-12T08:13:50.326Z,45.03
2022-10-12T08:16:21.511Z,44.70
2022-10-12T08:18:50.189Z,48.33
2022-10-12T08:21:20.524Z,41.88
2022-10-12T08:23:48.838Z,40.00
2022-10-12T08:26:17.231Z,43.85
2022-10-12T08:28:46.036Z,46.30
2022-10-12T08:31:16.419Z,46.88
2022-10-12T08:33:45.099Z,42.55
2022-10-12T08:36:14.058Z,39.95
2022-10-12T08:38:45.419Z,59.15
2022-10-12T08:41:29.899Z,46.20
2022-10-12T08:44:10.476Z,43.28
2022-10-12T08:46:39.436Z,46.30
2022-10-12T08:49:14.117Z,50.60
2022-10-12T08:51:49.904Z,42.30
2022-10-12T08:54:23.832Z,48.38
2022-10-12T08:56:55.054Z,43.70
2022-10-12T08:59:23.864Z,45.63
2022-10-12T09:02:03.035Z,41.45
2022-10-12T09:04:47.300Z,40.63
2022-10-12T09:07:19.907Z,43.53
2022-10-12T09:10:03.633Z,49.72
2022-10-12T09:12:45.242Z,43.50
2022-10-12T09:15:17.157Z,46.17
2022-10-12T09:17:48.576Z,42.22
2022-10-12T09:20:22.218Z,40.47
2022-10-12T09:22:52.765Z,39.28
2022-10-12T09:27:53.438Z,36.67
2022-10-12T09:30:22.112Z,46.25
2022-10-12T09:33:06.056Z,44.42
2022-10-12T09:35:34.841Z,41.42
2022-10-12T09:38:03.644Z,36.10
2022-10-12T09:40:33.986Z,40.80
2022-10-12T09:43:04.201Z,43.60
2022-10-12T09:45:35.884Z,40.17
2022-10-12T09:48:21.226Z,44.95
2022-10-12T09:50:52.991Z,37.60
2022-10-12T09:53:28.334Z,40.58
2022-10-12T09:56:05.108Z,37.13
2022-10-12T09:58:41.141Z,38.17
2022-10-12T10:01:19.576Z,40.55
2022-10-12T10:03:51.899Z,38.45
2022-10-12T10:06:26.550Z,38.40
2022-10-12T10:08:56.581Z,41.15
2022-10-12T10:11:30.944Z,51.88
2022-10-12T10:14:01.006Z,57.60
2022-10-12T10:16:31.472Z,48.05
2022-10-12T10:19:02.981Z,45.97
2022-10-12T10:21:34.627Z,40.67
2022-10-12T10:24:05.633Z,38.65
2022-10-12T10:26:54.616Z,36.58
2022-10-12T10:29:40.740Z,34.83
2022-10-12T10:32:26.755Z,48.03
2022-10-12T10:35:07.251Z,46.00
2022-10-12T10:37:36.857Z,37.20
2022-10-12T10:40:06.924Z,37.80
2022-10-12T10:42:38.065Z,39.30
2022-10-12T10:45:09.610Z,37.30
2022-10-12T10:47:46.489Z,33.38
2022-10-12T10:50:26.961Z,34.03
2022-10-12T10:52:58.019Z,119.72
2022-10-12T10:55:32.484Z,64.05
2022-10-12T10:58:05.128Z,45.75
2022-10-12T11:00:39.756Z,39.50
2022-10-12T11:03:17.267Z,45.03
2022-10-12T11:05:50.678Z,34.17
2022-10-12T11:08:23.389Z,32.10
2022-10-12T11:10:59.368Z,42.00
2022-10-12T11:13:33.347Z,31.83
2022-10-12T11:16:05.790Z,31.20
2022-10-12T11:18:40.295Z,36.00
2022-10-12T11:21:13.651Z,33.10
2022-10-12T11:23:46.888Z,32.10
2022-10-12T11:26:23.926Z,31.10
2022-10-12T11:28:55.952Z,31.23
2022-10-12T11:31:27.686Z,29.00
2022-10-12T11:34:00.627Z,62.30
2022-10-12T11:36:32.115Z,50.42
2022-10-12T11:39:06.846Z,33.72
2022-10-12T11:42:03.067Z,29.58
2022-10-12T11:44:42.180Z,29.20
2022-10-12T11:47:16.786Z,30.25
2022-10-12T11:49:52.401Z,31.98
2022-10-12T11:52:26.313Z,33.10
2022-10-12T11:55:06.167Z,29.83
2022-10-12T11:57:38.682Z,31.42
2022-10-12T12:00:19.549Z,26.08
2022-10-12T12:02:53.436Z,27.10
2022-10-12T12:05:22.281Z,32.03
2022-10-12T12:07:53.860Z,31.20
2022-10-12T12:10:46.523Z,24.05
2022-10-12T12:13:33.345Z,33.28
2022-10-12T12:16:27.542Z,29.23
2022-10-12T12:19:16.410Z,28.15
2022-10-12T12:22:17.040Z,25.33
2022-10-12T12:24:58.861Z,33.60
2022-10-12T12:27:37.449Z,26.30
2022-10-12T12:30:21.560Z,34.53
2022-10-12T12:32:53.743Z,27.75
2022-10-12T12:35:27.915Z,22.90
2022-10-12T12:38:09.444Z,30.38
2022-10-12T12:40:39.110Z,26.52
2022-10-12T12:43:21.314Z,24.67
2022-10-12T12:45:58.801Z,21.42
2022-10-12T12:49:25.144Z,27.48
2022-10-12T12:51:59.205Z,25.20
2022-10-12T12:54:28.909Z,26.23
2022-10-12T12:57:29.476Z,25.95
2022-10-12T13:00:21.343Z,23.67
2022-10-12T13:03:29.312Z,24.63
2022-10-12T13:06:39.158Z,24.15
2022-10-12T13:09:41.080Z,21.95
2022-10-12T13:12:34.582Z,26.38
2022-10-12T13:15:22.293Z,22.60
2022-10-12T13:18:45.286Z,21.73
2022-10-12T13:21:16.927Z,62.08
2022-10-12T13:23:50.261Z,56.83
2022-10-12T13:26:23.653Z,40.10
2022-10-12T13:28:53.349Z,28.65
2022-10-12T13:31:27.290Z,31.90
2022-10-12T13:34:02.455Z,38.17
2022-10-12T13:36:33.462Z,35.00
2022-10-12T13:39:16.057Z,33.72
2022-10-12T13:41:46.237Z,29.77
2022-10-12T13:44:23.893Z,49.38
2022-10-12T13:46:56.481Z,29.35
2022-10-12T13:49:26.998Z,25.75
2022-10-12T13:51:58.129Z,24.33
2022-10-12T13:57:01.047Z,25.02
2022-10-12T13:59:34.391Z,32.55
2022-10-12T14:02:04.305Z,26.55
2022-10-12T14:04:35.142Z,24.30
2022-10-12T14:07:07.779Z,19.25
2022-10-12T14:09:44.602Z,21.23
2022-10-12T14:12:14.635Z,24.20
2022-10-12T14:14:46.208Z,23.58
2022-10-12T14:17:16.685Z,19.60
2022-10-12T14:19:47.956Z,20.33
2022-10-12T14:22:24.292Z,20.88
2022-10-12T14:25:11.180Z,24.63
2022-10-12T14:27:41.486Z,22.08
2022-10-12T14:30:21.313Z,24.05
2022-10-12T14:32:55.032Z,25.77
2022-10-12T14:35:30.347Z,24.17
2022-10-12T14:37:59.607Z,21.67
2022-10-12T14:40:38.519Z,23.95
2022-10-12T14:43:21.327Z,23.20
2022-10-12T14:45:50.932Z,27.60
2022-10-12T14:48:23.752Z,38.10
2022-10-12T14:50:52.588Z,53.05
2022-10-12T14:53:22.439Z,36.85
2022-10-12T14:55:54.614Z,29.03
2022-10-12T14:58:23.415Z,24.60
2022-10-12T15:00:52.026Z,27.90
2022-10-12T15:03:20.420Z,27.95
2022-10-12T15:05:49.329Z,28.10
2022-10-12T15:08:17.605Z,42.42
2022-10-12T15:10:50.831Z,29.55
2022-10-12T15:13:20.477Z,35.53
2022-10-12T15:15:50.718Z,27.45
2022-10-12T15:18:19.065Z,26.67
2022-10-12T15:20:49.712Z,34.45
2022-10-12T15:23:18.554Z,31.70
2022-10-12T15:25:51.820Z,30.00
2022-10-12T15:28:21.888Z,30.20
2022-10-12T15:33:40.020Z,32.25
2022-10-12T15:36:08.738Z,34.22
2022-10-12T15:38:37.623Z,31.23
2022-10-12T15:41:06.588Z,34.60
2022-10-12T15:43:38.248Z,39.53
2022-10-12T15:46:12.126Z,36.47
2022-10-12T15:48:40.681Z,35.30
2022-10-12T15:51:17.988Z,39.92
2022-10-12T15:53:46.952Z,36.83
2022-10-12T15:56:17.161Z,43.72
2022-10-12T15:58:47.286Z,41.88
2022-10-12T16:01:17.708Z,41.60
2022-10-12T16:06:15.229Z,40.85
2022-10-12T16:08:44.435Z,36.75
2022-10-12T16:11:15.359Z,45.03
2022-10-12T16:13:51.068Z,40.15
2022-10-12T16:16:23.919Z,35.50
2022-10-12T16:18:54.238Z,42.45
2022-10-12T16:21:22.735Z,37.40
2022-10-12T16:23:51.332Z,36.15
2022-10-12T16:26:19.816Z,45.17
2022-10-12T16:28:48.783Z,41.05
2022-10-12T16:31:18.264Z,37.30
2022-10-12T16:33:48.367Z,44.85
2022-10-12T16:36:17.822Z,37.10
2022-10-12T16:38:46.903Z,37.83
2022-10-12T16:41:17.284Z,39.55
2022-10-12T16:46:16.363Z,36.20
2022-10-12T16:48:45.027Z,40.10
2022-10-12T16:51:15.647Z,32.92
2022-10-12T16:56:12.851Z,36.92
2022-10-12T16:58:41.327Z,33.35
2022-10-12T17:01:13.361Z,34.83
2022-10-12T17:03:43.309Z,74.03
2022-10-12T17:06:13.993Z,42.92
2022-10-12T17:08:42.557Z,41.38
2022-10-12T17:11:13.456Z,30.50
2022-10-12T17:13:48.093Z,31.38
2022-10-12T17:16:36.250Z,34.47
2022-10-12T17:19:05.066Z,50.92
2022-10-12T17:21:35.006Z,43.70
2022-10-12T17:24:03.918Z,34.20
2022-10-12T17:26:32.175Z,36.75
2022-10-12T17:29:00.438Z,30.67
2022-10-12T17:31:28.675Z,39.67
2022-10-12T17:33:58.498Z,41.53
2022-10-12T17:36:28.543Z,35.47
2022-10-12T17:39:00.353Z,34.92
2022-10-12T17:41:29.898Z,34.72
2022-10-12T17:43:58.778Z,32.22
2022-10-12T17:46:28.065Z,42.25
2022-10-12T17:48:57.008Z,31.48
2022-10-12T17:51:25.463Z,35.92
2022-10-12T17:53:53.825Z,33.80
2022-10-12T17:56:24.032Z,32.40
2022-10-12T17:58:55.421Z,27.85
2022-10-12T18:01:24.607Z,31.00
2022-10-12T18:03:55.377Z,32.15
2022-10-12T18:06:25.641Z,27.17
2022-10-12T18:08:55.067Z,34.72
2022-10-12T18:11:25.776Z,31.07
2022-10-12T18:13:56.773Z,35.42
2022-10-12T18:16:27.643Z,32.65
2022-10-12T18:21:26.584Z,28.80
2022-10-12T18:23:55.118Z,35.65
2022-10-12T18:26:28.011Z,38.97
2022-10-12T18:28:56.592Z,53.58
2022-10-12T18:31:26.975Z,39.38
2022-10-12T18:33:56.416Z,32.13
2022-10-12T18:36:24.790Z,76.53
2022-10-12T18:38:53.317Z,64.10
2022-10-12T18:41:23.481Z,56.85
2022-10-12T18:43:57.836Z,57.90
2022-10-12T18:46:27.829Z,53.08
2022-10-12T18:48:56.620Z,29.38
2022-10-12T18:51:27.449Z,39.60
2022-10-12T18:53:56.485Z,42.10
2022-10-12T18:56:25.698Z,44.30
2022-10-12T18:58:56.108Z,46.20
2022-10-12T19:01:26.073Z,40.08
2022-10-12T19:03:56.415Z,31.20
2022-10-12T19:06:27.398Z,29.10
2022-10-12T19:08:57.522Z,29.45
2022-10-12T19:11:27.208Z,29.30
2022-10-12T19:13:59.118Z,28.80
2022-10-12T19:16:28.011Z,30.48
2022-10-12T19:18:57.835Z,25.25
2022-10-12T19:21:26.678Z,31.60
2022-10-12T19:23:56.066Z,28.48
2022-10-12T19:26:28.299Z,28.60
2022-10-12T19:28:58.807Z,27.30
2022-10-12T19:31:29.131Z,25.63
2022-10-12T19:33:58.019Z,32.67
2022-10-12T19:36:27.698Z,32.38
2022-10-12T19:38:56.444Z,34.97
2022-10-12T19:41:25.689Z,34.13
2022-10-12T19:43:54.753Z,29.20
2022-10-12T19:46:24.956Z,28.35
2022-10-12T19:48:54.989Z,32.78
2022-10-12T19:51:25.402Z,31.70
2022-10-12T19:53:54.438Z,31.38
2022-10-12T19:56:23.217Z,38.90
2022-10-12T19:58:53.191Z,34.88
2022-10-12T20:01:25.610Z,38.13
2022-10-12T20:03:55.362Z,44.80
2022-10-12T20:06:25.833Z,41.53
2022-10-12T20:08:55.510Z,38.83
2022-10-12T20:11:25.131Z,39.05
2022-10-12T20:13:54.656Z,38.35
2022-10-12T20:16:24.582Z,39.47
2022-10-12T20:18:53.939Z,34.83
2022-10-12T20:21:23.788Z,32.13
2022-10-12T20:23:53.392Z,34.90
2022-10-12T20:26:23.288Z,32.25
2022-10-12T20:28:53.272Z,37.05
2022-10-12T20:31:23.530Z,33.35
2022-10-12T20:33:54.109Z,31.17
2022-10-12T20:36:25.412Z,34.67
2022-10-12T20:38:54.273Z,36.42
2022-10-12T20:41:23.687Z,33.67
2022-10-12T20:43:55.856Z,33.87
2022-10-12T20:46:24.725Z,28.60
2022-10-12T20:48:58.951Z,36.63
2022-10-12T20:51:29.900Z,33.92
2022-10-12T20:54:01.203Z,30.10
2022-10-12T20:56:29.715Z,34.08
2022-10-12T20:58:58.972Z,33.80
2022-10-12T21:01:28.301Z,34.83
2022-10-12T21:03:58.548Z,37.50
2022-10-12T21:06:26.900Z,35.53
2022-10-12T21:08:56.559Z,31.50
2022-10-12T21:11:25.711Z,33.45
2022-10-12T21:13:54.148Z,35.85
2022-10-12T21:16:22.455Z,36.95
2022-10-12T21:18:54.488Z,29.98
2022-10-12T21:21:25.217Z,38.55
2022-10-12T21:23:55.637Z,36.85
2022-10-12T21:26:25.471Z,36.85
2022-10-12T21:28:53.907Z,36.33
2022-10-12T21:31:23.428Z,35.95
2022-10-12T21:33:53.699Z,39.90
2022-10-12T21:36:26.364Z,40.97
2022-10-12T21:38:54.917Z,35.55
2022-10-12T21:41:24.586Z,32.42
2022-10-12T21:43:54.489Z,35.42
2022-10-12T21:46:24.557Z,30.47
2022-10-12T21:48:53.676Z,33.13
2022-10-12T21:51:24.955Z,30.73
2022-10-12T21:53:54.060Z,33.97
2022-10-12T21:56:24.263Z,27.25
2022-10-12T21:58:54.767Z,28.48
2022-10-12T22:03:54.910Z,29.88
2022-10-12T22:06:26.757Z,30.17
2022-10-12T22:08:57.147Z,30.35
2022-10-12T22:11:27.163Z,31.15
2022-10-12T22:13:59.682Z,31.33
2022-10-12T22:16:29.451Z,43.65
2022-10-12T22:18:59.246Z,42.17
2022-10-12T22:21:36.216Z,56.88
2022-10-12T22:24:06.029Z,31.10
2022-10-12T22:26:35.199Z,37.50
2022-10-12T22:29:07.388Z,34.22
2022-10-12T22:31:36.744Z,35.95
2022-10-12T22:34:05.461Z,37.47
2022-10-12T22:36:39.690Z,34.17
2022-10-12T22:39:09.665Z,29.20
2022-10-12T22:41:38.725Z,28.55
2022-10-12T22:44:07.620Z,30.00
2022-10-12T22:46:35.922Z,36.80
2022-10-12T22:49:04.857Z,40.58
2022-10-12T22:51:35.016Z,36.38
2022-10-12T22:54:05.449Z,27.90
2022-10-12T22:56:34.004Z,35.40
2022-10-12T22:59:06.701Z,36.10
2022-10-12T23:01:36.762Z,40.78
2022-10-12T23:04:05.808Z,35.22
2022-10-12T23:06:34.156Z,35.08
2022-10-12T23:09:04.710Z,33.35
2022-10-12T23:11:33.042Z,32.53
2022-10-12T23:14:01.771Z,34.40
2022-10-12T23:16:32.883Z,34.30
2022-10-12T23:21:32.615Z,30.48
2022-10-12T23:24:02.017Z,33.33
2022-10-12T23:26:31.959Z,34.13
2022-10-12T23:29:00.716Z,38.90
2022-10-12T23:31:32.612Z,41.83
2022-10-12T23:34:03.511Z,31.73
2022-10-12T23:36:33.451Z,30.60
2022-10-12T23:39:03.765Z,37.92
2022-10-12T23:44:02.151Z,42.55
2022-10-12T23:46:30.848Z,39.58
2022-10-12T23:49:00.486Z,43.85
2022-10-12T23:51:29.120Z,40.95
2022-10-12T23:53:57.315Z,45.40
2022-10-12T23:56:25.637Z,41.08
2022-10-12T23:58:56.053Z,38.00
